createdAt,value
2023-02-07T00:02:17.536Z,-3.33
2023-02-07T00:04:43.892Z,-3.37
2023-02-07T00:07:10.192Z,-3.42
2023-02-07T00:09:37.564Z,-3.47
2023-02-07T00:12:04.434Z,-3.49
2023-02-07T00:14:30.738Z,-3.52
2023-02-07T00:16:57.069Z,-3.60
2023-02-07T00:19:23.382Z,-3.63
2023-02-07T00:21:49.685Z,-3.61
2023-02-07T00:24:16.058Z,-3.63
2023-02-07T00:26:43.114Z,-3.63
2023-02-07T00:29:10.280Z,-3.68
2023-02-07T00:31:36.690Z,-3.66
2023-02-07T00:34:04.470Z,-3.67
2023-02-07T00:36:32.220Z,-3.72
2023-02-07T00:38:59.487Z,-3.73
2023-02-07T00:41:26.508Z,-3.75
2023-02-07T00:43:52.827Z,-3.74
2023-02-07T00:46:19.356Z,-3.77
2023-02-07T00:48:45.786Z,-3.80
2023-02-07T00:51:13.637Z,-3.83
2023-02-07T00:53:40.398Z,-3.83
2023-02-07T00:56:07.855Z,-3.81
2023-02-07T00:58:34.664Z,-3.83
2023-02-07T01:01:01.769Z,-3.87
2023-02-07T01:03:28.178Z,-3.81
2023-02-07T01:05:54.525Z,-3.81
2023-02-07T01:08:20.876Z,-3.80
2023-02-07T01:10:47.289Z,-3.82
2023-02-07T01:13:14.283Z,-3.80
2023-02-07T01:15:41.579Z,-3.84
2023-02-07T01:18:08.479Z,-3.78
2023-02-07T01:20:35.049Z,-3.75
2023-02-07T01:23:01.440Z,-3.82
2023-02-07T01:25:27.806Z,-3.83
2023-02-07T01:27:54.153Z,-3.87
2023-02-07T01:30:20.522Z,-3.94
2023-02-07T01:32:46.841Z,-3.95
2023-02-07T01:35:13.481Z,-4.00
2023-02-07T01:37:39.945Z,-4.01
2023-02-07T01:40:06.524Z,-4.01
2023-02-07T01:42:33.135Z,-4.06
2023-02-07T01:45:05.198Z,-4.03
2023-02-07T01:47:32.444Z,-4.03
2023-02-07T01:49:58.859Z,-3.88
2023-02-07T01:52:31.056Z,-3.87
2023-02-07T01:55:00.599Z,-3.94
2023-02-07T01:57:27.354Z,-4.03
2023-02-07T01:59:55.137Z,-4.07
2023-02-07T02:02:23.006Z,-3.98
2023-02-07T02:04:51.347Z,-3.89
2023-02-07T02:07:17.923Z,-3.89
2023-02-07T02:09:44.247Z,-3.92
2023-02-07T02:12:29.411Z,-3.89
2023-02-07T02:15:11.068Z,-3.85
2023-02-07T02:17:43.570Z,-3.78
2023-02-07T02:20:15.949Z,-3.67
2023-02-07T02:23:01.195Z,-3.63
2023-02-07T02:25:30.717Z,-3.58
2023-02-07T02:28:00.061Z,-3.51
2023-02-07T02:30:41.821Z,-3.48
2023-02-07T02:33:20.558Z,-3.47
2023-02-07T02:35:46.852Z,-3.44
2023-02-07T02:38:21.502Z,-3.44
2023-02-07T02:40:47.852Z,-3.50
2023-02-07T02:43:19.544Z,-3.55
2023-02-07T02:45:50.711Z,-3.56
2023-02-07T02:48:17.496Z,-3.57
2023-02-07T02:50:48.369Z,-3.61
2023-02-07T02:53:15.279Z,-3.63
2023-02-07T02:56:20.142Z,-3.67
2023-02-07T02:59:06.700Z,-3.75
2023-02-07T03:01:42.248Z,-3.80
2023-02-07T03:04:26.750Z,-3.85
2023-02-07T03:07:11.965Z,-3.86
2023-02-07T03:09:57.170Z,-3.91
2023-02-07T03:12:37.953Z,-3.91
2023-02-07T03:15:16.977Z,-3.90
2023-02-07T03:17:43.276Z,-3.91
2023-02-07T03:20:14.514Z,-3.89
2023-02-07T03:22:43.018Z,-3.90
2023-02-07T03:25:10.032Z,-3.84
2023-02-07T03:27:36.971Z,-3.82
2023-02-07T03:30:06.589Z,-3.83
2023-02-07T03:32:36.239Z,-3.86
2023-02-07T03:35:12.217Z,-3.87
2023-02-07T03:37:42.889Z,-3.87
2023-02-07T03:40:10.710Z,-3.88
2023-02-07T03:42:43.518Z,-3.88
2023-02-07T03:45:13.512Z,-3.92
2023-02-07T03:47:39.887Z,-3.95
2023-02-07T03:50:06.372Z,-4.00
2023-02-07T03:52:32.714Z,-4.04
2023-02-07T03:54:59.045Z,-4.06
2023-02-07T03:57:25.382Z,-4.10
2023-02-07T03:59:51.742Z,-4.21
2023-02-07T04:02:18.511Z,-4.24
2023-02-07T04:04:44.873Z,-4.24
2023-02-07T04:07:11.581Z,-4.26
2023-02-07T04:09:37.926Z,-4.27
2023-02-07T04:12:04.361Z,-4.27
2023-02-07T04:14:30.880Z,-4.25
2023-02-07T04:16:57.228Z,-4.27
2023-02-07T04:19:23.559Z,-4.30
2023-02-07T04:21:49.892Z,-4.33
2023-02-07T04:24:16.286Z,-4.41
2023-02-07T04:26:42.655Z,-4.45
2023-02-07T04:29:09.192Z,-4.43
2023-02-07T04:31:35.535Z,-4.42
2023-02-07T04:34:02.027Z,-4.41
2023-02-07T04:36:29.839Z,-4.43
2023-02-07T04:38:56.227Z,-4.38
2023-02-07T04:41:22.624Z,-4.43
2023-02-07T04:43:48.951Z,-4.53
2023-02-07T04:46:15.322Z,-4.51
2023-02-07T04:48:41.761Z,-4.51
2023-02-07T04:51:08.127Z,-4.58
2023-02-07T04:53:34.545Z,-4.66
2023-02-07T04:56:00.914Z,-4.71
2023-02-07T04:58:28.413Z,-4.65
2023-02-07T05:00:54.865Z,-4.66
2023-02-07T05:03:21.506Z,-4.67
2023-02-07T05:05:47.863Z,-4.62
2023-02-07T05:08:14.572Z,-4.61
2023-02-07T05:10:41.247Z,-4.60
2023-02-07T05:13:07.700Z,-4.59
2023-02-07T05:15:34.148Z,-4.65
2023-02-07T05:18:01.184Z,-4.72
2023-02-07T05:20:27.767Z,-4.70
2023-02-07T05:22:54.140Z,-4.70
2023-02-07T05:25:20.499Z,-4.71
2023-02-07T05:27:46.913Z,-4.73
2023-02-07T05:30:13.498Z,-4.78
2023-02-07T05:32:58.661Z,-4.78
2023-02-07T05:35:25.011Z,-4.76
2023-02-07T05:37:51.434Z,-4.84
2023-02-07T05:40:17.919Z,-4.84
2023-02-07T05:42:44.278Z,-4.87
2023-02-07T05:45:10.668Z,-4.82
2023-02-07T05:47:36.982Z,-4.85
2023-02-07T05:50:03.427Z,-4.91
2023-02-07T05:52:29.921Z,-4.94
2023-02-07T05:54:56.225Z,-5.03
2023-02-07T05:57:22.661Z,-5.05
2023-02-07T05:59:49.055Z,-5.11
2023-02-07T06:02:15.596Z,-5.13
2023-02-07T06:04:41.963Z,-5.07
2023-02-07T06:07:08.360Z,-5.17
2023-02-07T06:09:34.718Z,-5.15
2023-02-07T06:12:02.553Z,-5.12
2023-02-07T06:14:30.013Z,-5.12
2023-02-07T06:16:56.309Z,-5.21
2023-02-07T06:19:22.636Z,-5.24
2023-02-07T06:21:48.959Z,-5.22
2023-02-07T06:24:15.670Z,-5.24
2023-02-07T06:26:42.498Z,-5.22
2023-02-07T06:29:08.924Z,-5.19
2023-02-07T06:31:35.375Z,-5.25
2023-02-07T06:34:01.742Z,-5.31
2023-02-07T06:36:28.047Z,-5.33
2023-02-07T06:38:55.549Z,-5.30
2023-02-07T06:41:22.542Z,-5.33
2023-02-07T06:43:48.960Z,-5.32
2023-02-07T06:46:15.418Z,-5.32
2023-02-07T06:48:41.766Z,-5.32
2023-02-07T06:51:08.079Z,-5.31
2023-02-07T06:53:34.452Z,-5.33
2023-02-07T06:56:00.837Z,-5.34
2023-02-07T06:58:27.172Z,-5.36
2023-02-07T07:00:53.521Z,-5.34
2023-02-07T07:03:20.280Z,-5.31
2023-02-07T07:05:46.611Z,-5.35
2023-02-07T07:08:15.428Z,-5.41
2023-02-07T07:10:41.736Z,-5.38
2023-02-07T07:13:08.045Z,-5.29
2023-02-07T07:15:34.350Z,-5.25
2023-02-07T07:18:00.644Z,-5.19
2023-02-07T07:20:27.157Z,-5.12
2023-02-07T07:22:53.610Z,-5.07
2023-02-07T07:25:20.042Z,-5.03
2023-02-07T07:27:46.418Z,-5.00
2023-02-07T07:30:12.980Z,-4.92
2023-02-07T07:32:39.638Z,-4.88
2023-02-07T07:35:06.376Z,-4.91
2023-02-07T07:37:32.855Z,-4.91
2023-02-07T07:39:59.322Z,-4.89
2023-02-07T07:42:25.747Z,-4.66
2023-02-07T07:44:52.073Z,-4.61
2023-02-07T07:47:19.060Z,-4.62
2023-02-07T07:49:45.701Z,-4.62
2023-02-07T07:52:12.088Z,-4.55
2023-02-07T07:54:38.463Z,-4.49
2023-02-07T07:57:04.884Z,-4.41
2023-02-07T07:59:31.222Z,-4.33
2023-02-07T08:01:57.597Z,-4.34
2023-02-07T08:04:23.925Z,-4.26
2023-02-07T08:06:50.278Z,-4.12
2023-02-07T08:09:16.682Z,-3.99
2023-02-07T08:11:43.010Z,-3.90
2023-02-07T08:14:09.792Z,-3.83
2023-02-07T08:16:36.155Z,-3.77
2023-02-07T08:19:02.567Z,-3.68
2023-02-07T08:21:28.935Z,-3.65
2023-02-07T08:23:55.295Z,-3.58
2023-02-07T08:26:21.610Z,-3.54
2023-02-07T08:28:48.629Z,-3.46
2023-02-07T08:31:15.222Z,-3.41
2023-02-07T08:33:41.641Z,-3.38
2023-02-07T08:36:10.119Z,-3.35
2023-02-07T08:38:36.967Z,-3.33
2023-02-07T08:41:03.547Z,-3.28
2023-02-07T08:43:29.879Z,-3.22
2023-02-07T08:45:56.253Z,-3.19
2023-02-07T08:48:22.767Z,-3.12
2023-02-07T08:50:49.128Z,-3.07
2023-02-07T08:53:15.547Z,-2.96
2023-02-07T08:55:42.240Z,-2.91
2023-02-07T08:58:08.633Z,-2.80
2023-02-07T09:00:35.494Z,-2.70
2023-02-07T09:03:03.610Z,-2.61
2023-02-07T09:05:33.556Z,-2.55
2023-02-07T09:08:00.459Z,-2.51
2023-02-07T09:10:26.844Z,-2.41
2023-02-07T09:12:53.215Z,-2.35
2023-02-07T09:15:19.552Z,-2.31
2023-02-07T09:17:46.110Z,-2.25
2023-02-07T09:20:12.563Z,-2.22
2023-02-07T09:22:57.852Z,-2.14
2023-02-07T09:25:24.780Z,-2.06
2023-02-07T09:27:51.264Z,-1.97
2023-02-07T09:30:17.740Z,-1.87
2023-02-07T09:32:44.239Z,-1.82
2023-02-07T09:35:10.944Z,-1.76
2023-02-07T09:37:48.902Z,-1.65
2023-02-07T09:40:19.047Z,-1.62
2023-02-07T09:42:51.640Z,-1.50
2023-02-07T09:45:20.479Z,-1.42
2023-02-07T09:47:49.885Z,-1.35
2023-02-07T09:50:22.934Z,-1.30
2023-02-07T09:53:03.284Z,-1.27
2023-02-07T09:56:08.240Z,-1.20
2023-02-07T09:58:43.932Z,-1.18
2023-02-07T10:01:17.216Z,-1.10
2023-02-07T10:03:51.667Z,-1.06
2023-02-07T10:06:22.561Z,-0.93
2023-02-07T10:08:52.180Z,-0.90
2023-02-07T10:11:34.488Z,-0.85
2023-02-07T10:14:14.295Z,-0.77
2023-02-07T10:16:58.895Z,-0.67
2023-02-07T10:19:37.772Z,-0.59
2023-02-07T10:22:13.259Z,-0.50
2023-02-07T10:24:39.606Z,-0.49
2023-02-07T10:27:13.491Z,-0.40
2023-02-07T10:29:39.887Z,-0.35
2023-02-07T10:32:19.069Z,-0.30
2023-02-07T10:34:47.752Z,-0.28
2023-02-07T10:37:19.088Z,-0.25
2023-02-07T10:39:48.848Z,-0.21
2023-02-07T10:42:16.409Z,-0.14
2023-02-07T10:44:43.268Z,-0.07
2023-02-07T10:47:11.362Z,-0.02
2023-02-07T10:49:37.740Z,0.01
2023-02-07T10:52:22.835Z,0.02
2023-02-07T10:54:53.356Z,0.04
2023-02-07T10:57:20.698Z,0.14
2023-02-07T10:59:47.562Z,0.22
2023-02-07T11:02:29.207Z,0.21
2023-02-07T11:04:56.760Z,0.28
2023-02-07T11:07:23.193Z,0.32
2023-02-07T11:09:49.623Z,0.38
2023-02-07T11:12:23.321Z,0.41
2023-02-07T11:14:59.579Z,0.45
2023-02-07T11:17:25.984Z,0.49
2023-02-07T11:19:52.589Z,0.48
2023-02-07T11:22:20.649Z,0.58
2023-02-07T11:24:48.086Z,0.62
2023-02-07T11:27:15.726Z,0.95
2023-02-07T11:29:56.316Z,2.12
2023-02-07T11:32:24.689Z,3.27
2023-02-07T11:34:58.050Z,3.92
2023-02-07T11:37:27.154Z,4.15
2023-02-07T11:39:55.232Z,4.80
2023-02-07T11:42:23.174Z,5.44
2023-02-07T11:44:50.404Z,6.04
2023-02-07T11:47:19.642Z,6.36
2023-02-07T11:49:48.996Z,6.78
2023-02-07T11:52:15.400Z,6.27
2023-02-07T11:54:43.264Z,5.92
2023-02-07T11:57:14.055Z,5.29
2023-02-07T11:59:49.372Z,4.28
2023-02-07T12:02:19.825Z,3.87
2023-02-07T12:04:46.659Z,3.98
2023-02-07T12:07:18.187Z,4.31
2023-02-07T12:09:59.282Z,4.83
2023-02-07T12:12:40.767Z,5.62
2023-02-07T12:15:09.802Z,5.75
2023-02-07T12:17:53.889Z,5.56
2023-02-07T12:20:24.655Z,5.49
2023-02-07T12:23:04.828Z,5.22
2023-02-07T12:25:45.395Z,4.20
2023-02-07T12:28:20.200Z,3.81
2023-02-07T12:30:48.756Z,3.50
2023-02-07T12:33:15.096Z,3.08
2023-02-07T12:36:03.972Z,2.81
2023-02-07T12:38:37.572Z,2.45
2023-02-07T12:41:03.956Z,2.31
2023-02-07T12:43:32.858Z,2.31
2023-02-07T12:45:59.158Z,2.41
2023-02-07T12:48:35.905Z,2.50
2023-02-07T12:51:02.185Z,2.70
2023-02-07T12:53:36.854Z,3.19
2023-02-07T12:56:04.594Z,4.68
2023-02-07T12:58:42.290Z,6.20
2023-02-07T13:01:27.403Z,6.66
2023-02-07T13:03:56.752Z,7.82
2023-02-07T13:06:29.204Z,8.47
2023-02-07T13:09:11.637Z,7.87
2023-02-07T13:11:54.310Z,8.10
2023-02-07T13:14:47.293Z,8.58
2023-02-07T13:17:32.467Z,8.90
2023-02-07T13:20:01.773Z,9.07
2023-02-07T13:22:31.794Z,9.19
2023-02-07T13:24:58.214Z,9.42
2023-02-07T13:27:26.033Z,8.74
2023-02-07T13:29:52.645Z,8.55
2023-02-07T13:32:21.420Z,8.60
2023-02-07T13:34:47.706Z,8.96
2023-02-07T13:37:17.002Z,9.18
2023-02-07T13:39:52.566Z,9.06
2023-02-07T13:42:18.870Z,8.80
2023-02-07T13:45:03.554Z,8.15
2023-02-07T13:47:42.132Z,7.80
2023-02-07T13:50:17.291Z,7.11
2023-02-07T13:52:52.108Z,6.45
2023-02-07T13:55:18.492Z,5.66
2023-02-07T13:58:03.287Z,5.16
2023-02-07T14:00:36.014Z,4.70
2023-02-07T14:03:04.241Z,4.58
2023-02-07T14:05:31.891Z,4.36
2023-02-07T14:08:18.441Z,4.42
2023-02-07T14:10:46.407Z,4.21
2023-02-07T14:13:20.621Z,4.08
2023-02-07T14:15:46.943Z,4.01
2023-02-07T14:18:28.521Z,3.75
2023-02-07T14:21:00.603Z,3.39
2023-02-07T14:23:46.888Z,3.17
2023-02-07T14:26:32.015Z,2.98
2023-02-07T14:29:17.271Z,2.80
2023-02-07T14:31:56.246Z,2.65
2023-02-07T14:34:24.825Z,2.56
2023-02-07T14:36:54.891Z,2.51
2023-02-07T14:39:24.280Z,2.44
2023-02-07T14:41:51.780Z,2.41
2023-02-07T14:44:23.976Z,2.43
2023-02-07T14:46:52.053Z,2.56
2023-02-07T14:49:20.691Z,2.79
2023-02-07T14:51:49.402Z,2.96
2023-02-07T14:54:18.965Z,3.10
2023-02-07T14:56:57.151Z,3.15
2023-02-07T14:59:28.051Z,3.31
2023-02-07T15:01:54.446Z,3.52
2023-02-07T15:04:20.838Z,3.79
2023-02-07T15:06:47.393Z,4.30
2023-02-07T15:09:18.173Z,4.55
2023-02-07T15:11:46.469Z,4.80
2023-02-07T15:14:30.096Z,4.78
2023-02-07T15:16:56.677Z,4.18
2023-02-07T15:19:30.099Z,3.60
2023-02-07T15:21:56.576Z,3.06
2023-02-07T15:24:22.968Z,2.66
2023-02-07T15:26:50.584Z,2.37
2023-02-07T15:29:21.518Z,2.14
2023-02-07T15:31:48.219Z,1.95
2023-02-07T15:34:16.430Z,1.81
2023-02-07T15:36:45.469Z,1.69
2023-02-07T15:39:14.928Z,1.59
2023-02-07T15:41:41.417Z,1.50
2023-02-07T15:44:18.116Z,1.44
2023-02-07T15:46:58.056Z,1.36
2023-02-07T15:49:32.881Z,1.31
2023-02-07T15:52:02.011Z,1.24
2023-02-07T15:54:28.680Z,1.18
2023-02-07T15:56:59.432Z,1.10
2023-02-07T15:59:28.874Z,1.08
2023-02-07T16:01:56.610Z,1.01
2023-02-07T16:04:24.233Z,0.98
2023-02-07T16:06:55.231Z,0.85
2023-02-07T16:09:57.332Z,0.75
2023-02-07T16:12:26.354Z,0.67
2023-02-07T16:14:52.679Z,0.61
2023-02-07T16:17:23.789Z,0.56
2023-02-07T16:19:50.134Z,0.50
2023-02-07T16:22:25.904Z,0.48
2023-02-07T16:24:52.305Z,0.42
2023-02-07T16:27:20.250Z,0.34
2023-02-07T16:29:47.169Z,0.29
2023-02-07T16:32:13.917Z,0.22
2023-02-07T16:34:53.866Z,0.13
2023-02-07T16:37:24.103Z,0.11
2023-02-07T16:39:50.441Z,0.05
2023-02-07T16:42:17.643Z,0.03
2023-02-07T16:44:45.885Z,-0.03
2023-02-07T16:47:12.915Z,-0.17
2023-02-07T16:49:39.630Z,-0.32
2023-02-07T16:52:06.100Z,-0.49
2023-02-07T16:54:32.406Z,-0.65
2023-02-07T16:57:03.534Z,-0.78
2023-02-07T16:59:30.496Z,-0.91
2023-02-07T17:01:56.953Z,-0.97
2023-02-07T17:04:23.336Z,-1.09
2023-02-07T17:06:50.110Z,-1.10
2023-02-07T17:09:17.696Z,-1.18
2023-02-07T17:11:44.545Z,-1.25
2023-02-07T17:14:11.168Z,-1.25
2023-02-07T17:16:40.517Z,-1.28
2023-02-07T17:19:11.980Z,-1.23
2023-02-07T17:21:38.350Z,-1.25
2023-02-07T17:24:04.868Z,-1.24
2023-02-07T17:26:31.990Z,-1.23
2023-02-07T17:28:58.455Z,-1.20
2023-02-07T17:31:25.480Z,-1.17
2023-02-07T17:33:51.991Z,-1.20
2023-02-07T17:36:18.376Z,-1.24
2023-02-07T17:38:44.703Z,-1.28
2023-02-07T17:41:11.728Z,-1.25
2023-02-07T17:43:41.081Z,-1.26
2023-02-07T17:46:24.332Z,-1.29
2023-02-07T17:48:51.402Z,-1.33
2023-02-07T17:51:19.698Z,-1.36
2023-02-07T17:53:46.580Z,-1.37
2023-02-07T17:56:33.168Z,-1.37
2023-02-07T17:59:00.739Z,-1.41
2023-02-07T18:01:27.181Z,-1.42
2023-02-07T18:03:54.343Z,-1.43
2023-02-07T18:06:22.208Z,-1.45
2023-02-07T18:08:48.623Z,-1.51
2023-02-07T18:11:15.245Z,-1.51
2023-02-07T18:13:42.639Z,-1.53
2023-02-07T18:16:11.244Z,-1.56
2023-02-07T18:18:38.758Z,-1.60
2023-02-07T18:21:05.513Z,-1.62
2023-02-07T18:23:32.340Z,-1.65
2023-02-07T18:25:58.940Z,-1.66
2023-02-07T18:28:25.251Z,-1.68
2023-02-07T18:30:51.763Z,-1.68
2023-02-07T18:33:19.358Z,-1.71
2023-02-07T18:35:46.423Z,-1.76
2023-02-07T18:38:12.968Z,-1.76
2023-02-07T18:40:40.467Z,-1.80
2023-02-07T18:43:18.265Z,-1.83
2023-02-07T18:45:46.155Z,-1.83
2023-02-07T18:48:14.787Z,-1.86
2023-02-07T18:50:44.621Z,-1.87
2023-02-07T18:53:11.794Z,-1.93
2023-02-07T18:55:38.192Z,-1.97
2023-02-07T18:58:04.708Z,-1.99
2023-02-07T19:00:34.976Z,-2.04
2023-02-07T19:03:01.761Z,-2.07
2023-02-07T19:05:28.183Z,-2.14
2023-02-07T19:07:55.518Z,-2.19
2023-02-07T19:10:21.890Z,-2.17
2023-02-07T19:12:48.231Z,-2.19
2023-02-07T19:15:14.542Z,-2.21
2023-02-07T19:17:40.862Z,-2.16
2023-02-07T19:20:07.500Z,-2.17
2023-02-07T19:22:36.190Z,-2.18
2023-02-07T19:25:03.519Z,-2.19
2023-02-07T19:27:29.871Z,-2.21
2023-02-07T19:29:56.171Z,-2.26
2023-02-07T19:32:22.504Z,-2.30
2023-02-07T19:34:49.975Z,-2.32
2023-02-07T19:37:16.452Z,-2.38
2023-02-07T19:39:44.777Z,-2.43
2023-02-07T19:42:11.135Z,-2.55
2023-02-07T19:44:37.441Z,-2.64
2023-02-07T19:47:05.126Z,-2.68
2023-02-07T19:49:31.462Z,-2.70
2023-02-07T19:51:57.779Z,-2.71
2023-02-07T19:54:24.094Z,-2.77
2023-02-07T19:56:50.435Z,-2.85
2023-02-07T19:59:18.568Z,-2.96
2023-02-07T20:01:44.946Z,-2.98
2023-02-07T20:04:11.380Z,-2.98
2023-02-07T20:06:37.756Z,-2.94
2023-02-07T20:09:05.294Z,-2.94
2023-02-07T20:11:31.754Z,-2.95
2023-02-07T20:14:02.819Z,-2.97
2023-02-07T20:16:31.396Z,-2.96
2023-02-07T20:18:57.877Z,-2.98
2023-02-07T20:21:25.231Z,-2.98
2023-02-07T20:23:52.383Z,-2.96
2023-02-07T20:26:20.610Z,-2.93
2023-02-07T20:28:47.046Z,-2.93
2023-02-07T20:31:14.609Z,-2.93
2023-02-07T20:33:41.633Z,-2.96
2023-02-07T20:36:08.601Z,-3.02
2023-02-07T20:38:35.070Z,-3.10
2023-02-07T20:41:30.362Z,-3.11
2023-02-07T20:43:57.012Z,-3.21
2023-02-07T20:46:23.786Z,-3.25
2023-02-07T20:48:50.450Z,-3.28
2023-02-07T20:51:16.755Z,-3.25
2023-02-07T20:53:43.430Z,-3.25
2023-02-07T20:56:11.423Z,-3.29
2023-02-07T20:58:37.870Z,-3.38
2023-02-07T21:01:11.884Z,-3.38
2023-02-07T21:03:38.686Z,-3.39
2023-02-07T21:06:05.754Z,-3.46
2023-02-07T21:08:32.847Z,-3.49
2023-02-07T21:10:59.271Z,-3.54
2023-02-07T21:13:25.743Z,-3.56
2023-02-07T21:16:02.521Z,-3.60
2023-02-07T21:18:29.638Z,-3.62
2023-02-07T21:20:56.150Z,-3.65
2023-02-07T21:23:22.706Z,-3.61
2023-02-07T21:25:49.063Z,-3.64
2023-02-07T21:28:15.379Z,-3.62
2023-02-07T21:30:42.151Z,-3.60
2023-02-07T21:33:08.592Z,-3.70
2023-02-07T21:35:35.043Z,-3.74
2023-02-07T21:38:01.368Z,-3.76
2023-02-07T21:40:27.775Z,-3.76
2023-02-07T21:42:55.091Z,-3.84
2023-02-07T21:45:21.392Z,-3.91
2023-02-07T21:47:47.997Z,-3.91
2023-02-07T21:50:14.287Z,-3.90
2023-02-07T21:52:40.597Z,-3.89
2023-02-07T21:55:07.060Z,-3.88
2023-02-07T21:57:33.394Z,-3.91
2023-02-07T21:59:59.722Z,-3.92
2023-02-07T22:02:26.148Z,-3.94
2023-02-07T22:04:52.573Z,-3.94
2023-02-07T22:07:18.957Z,-3.95
2023-02-07T22:09:45.246Z,-3.97
2023-02-07T22:12:11.568Z,-3.97
2023-02-07T22:14:37.886Z,-4.04
2023-02-07T22:17:04.255Z,-4.12
2023-02-07T22:19:30.632Z,-4.10
2023-02-07T22:21:58.916Z,-4.09
2023-02-07T22:24:25.326Z,-4.12
2023-02-07T22:26:51.637Z,-4.11
2023-02-07T22:29:17.969Z,-4.15
2023-02-07T22:31:44.374Z,-4.18
2023-02-07T22:34:11.468Z,-4.28
2023-02-07T22:36:39.301Z,-4.33
2023-02-07T22:39:06.706Z,-4.32
2023-02-07T22:41:33.408Z,-4.30
2023-02-07T22:44:02.855Z,-4.34
2023-02-07T22:46:29.889Z,-4.28
2023-02-07T22:48:56.240Z,-4.24
2023-02-07T22:51:27.255Z,-4.26
2023-02-07T22:53:55.035Z,-4.31
2023-02-07T22:56:21.561Z,-4.37
2023-02-07T22:58:47.928Z,-4.33
2023-02-07T23:01:18.600Z,-4.32
2023-02-07T23:03:44.929Z,-4.39
2023-02-07T23:06:11.357Z,-4.48
2023-02-07T23:08:37.655Z,-4.54
2023-02-07T23:11:07.288Z,-4.48
2023-02-07T23:13:33.615Z,-4.45
2023-02-07T23:16:00.059Z,-4.45
2023-02-07T23:18:26.517Z,-4.52
2023-02-07T23:20:52.850Z,-4.60
2023-02-07T23:23:19.317Z,-4.56
2023-02-07T23:25:46.307Z,-4.58
2023-02-07T23:28:13.132Z,-4.60
2023-02-07T23:30:40.170Z,-4.59
2023-02-07T23:33:08.398Z,-4.53
2023-02-07T23:35:34.972Z,-4.50
2023-02-07T23:38:01.863Z,-4.57
2023-02-07T23:40:28.855Z,-4.59
2023-02-07T23:42:55.362Z,-4.56
2023-02-07T23:45:21.677Z,-4.57
2023-02-07T23:47:48.005Z,-4.61
2023-02-07T23:50:15.338Z,-4.69
2023-02-07T23:52:41.662Z,-4.72
2023-02-07T23:55:08.004Z,-4.72
2023-02-07T23:57:34.302Z,-4.72
